sensor_id;sensor_type;location;lat;lon;timestamp;pressure;altitude;pressure_sealevel;temperature;humidity
45939;BME280;31650;48.818;9.116;2023-03-29T00:06:08;98351.38;;;4.33;100.00
45939;BME280;31650;48.818;9.116;2023-03-29T00:21:08;98327.50;;;4.30;100.00
45939;BME280;31650;48.818;9.116;2023-03-29T00:36:09;98315.88;;;4.37;100.00
45939;BME280;31650;48.818;9.116;2023-03-29T00:51:09;98312.34;;;4.37;100.00
45939;BME280;31650;48.818;9.116;2023-03-29T01:06:13;98291.84;;;4.36;100.00
45939;BME280;31650;48.818;9.116;2023-03-29T01:21:22;98262.16;;;4.52;100.00
45939;BME280;31650;48.818;9.116;2023-03-29T01:36:26;98235.56;;;4.57;100.00
45939;BME280;31650;48.818;9.116;2023-03-29T02:06:28;98187.88;;;4.35;100.00
45939;BME280;31650;48.818;9.116;2023-03-29T02:21:33;98157.28;;;4.27;100.00
45939;BME280;31650;48.818;9.116;2023-03-29T02:36:40;98170.28;;;4.16;100.00
45939;BME280;31650;48.818;9.116;2023-03-29T02:51:41;98134.66;;;3.66;100.00
45939;BME280;31650;48.818;9.116;2023-03-29T03:06:43;98091.13;;;3.71;100.00
45939;BME280;31650;48.818;9.116;2023-03-29T03:21:43;98108.19;;;3.47;100.00
45939;BME280;31650;48.818;9.116;2023-03-29T03:36:44;98079.56;;;4.79;100.00
45939;BME280;31650;48.818;9.116;2023-03-29T03:51:46;98068.94;;;5.68;94.97
45939;BME280;31650;48.818;9.116;2023-03-29T04:06:46;98082.31;;;5.76;94.70
45939;BME280;31650;48.818;9.116;2023-03-29T04:21:46;98082.03;;;6.01;86.73
45939;BME280;31650;48.818;9.116;2023-03-29T04:36:48;98080.03;;;6.24;85.24
45939;BME280;31650;48.818;9.116;2023-03-29T04:51:51;98073.63;;;6.47;81.86
45939;BME280;31650;48.818;9.116;2023-03-29T05:06:52;98078.13;;;6.61;80.13
45939;BME280;31650;48.818;9.116;2023-03-29T05:21:52;98086.22;;;6.76;79.73
45939;BME280;31650;48.818;9.116;2023-03-29T05:36:53;98078.78;;;6.63;80.66
45939;BME280;31650;48.818;9.116;2023-03-29T05:51:53;98083.38;;;6.84;80.83
45939;BME280;31650;48.818;9.116;2023-03-29T06:06:56;98083.44;;;7.19;76.58
45939;BME280;31650;48.818;9.116;2023-03-29T06:21:56;98092.03;;;7.51;74.27
45939;BME280;31650;48.818;9.116;2023-03-29T06:36:56;98103.00;;;7.77;75.39
45939;BME280;31650;48.818;9.116;2023-03-29T06:51:56;98102.19;;;8.80;73.55
45939;BME280;31650;48.818;9.116;2023-03-29T07:06:57;98119.28;;;8.80;72.85
45939;BME280;31650;48.818;9.116;2023-03-29T07:22:00;98131.84;;;9.01;70.89
45939;BME280;31650;48.818;9.116;2023-03-29T07:37:00;98133.13;;;9.52;73.70
45939;BME280;31650;48.818;9.116;2023-03-29T07:52:00;98150.22;;;9.79;71.15
45939;BME280;31650;48.818;9.116;2023-03-29T08:07:01;98145.97;;;10.75;67.11
45939;BME280;31650;48.818;9.116;2023-03-29T08:22:01;98129.16;;;11.98;61.09
45939;BME280;31650;48.818;9.116;2023-03-29T08:37:01;98132.03;;;11.78;60.91
45939;BME280;31650;48.818;9.116;2023-03-29T08:52:04;98130.59;;;12.01;64.12
45939;BME280;31650;48.818;9.116;2023-03-29T09:07:08;98119.25;;;12.22;61.50
45939;BME280;31650;48.818;9.116;2023-03-29T09:37:58;98095.13;;;13.16;56.99
45939;BME280;31650;48.818;9.116;2023-03-29T09:52:39;98075.50;;;14.37;51.40
45939;BME280;31650;48.818;9.116;2023-03-29T10:07:40;98084.25;;;15.88;47.05
45939;BME280;31650;48.818;9.116;2023-03-29T10:22:46;98060.31;;;15.66;46.17
45939;BME280;31650;48.818;9.116;2023-03-29T10:37:48;98071.75;;;15.12;49.29
45939;BME280;31650;48.818;9.116;2023-03-29T10:52:48;98038.59;;;16.43;46.28
45939;BME280;31650;48.818;9.116;2023-03-29T11:53:19;98001.38;;;17.01;45.96
45939;BME280;31650;48.818;9.116;2023-03-29T12:24:00;97976.47;;;19.07;44.50
45939;BME280;31650;48.818;9.116;2023-03-29T12:39:01;97984.78;;;18.13;45.61
45939;BME280;31650;48.818;9.116;2023-03-29T12:54:23;98006.03;;;17.00;46.41
45939;BME280;31650;48.818;9.116;2023-03-29T13:09:29;97998.00;;;16.94;47.40
45939;BME280;31650;48.818;9.116;2023-03-29T13:24:53;97992.72;;;17.19;46.89
45939;BME280;31650;48.818;9.116;2023-03-29T13:39:51;97995.06;;;16.24;53.00
45939;BME280;31650;48.818;9.116;2023-03-29T13:54:56;98003.97;;;15.37;56.53
45939;BME280;31650;48.818;9.116;2023-03-29T14:09:59;98043.84;;;12.34;100.00
45939;BME280;31650;48.818;9.116;2023-03-29T14:25:04;98018.13;;;12.72;100.00
45939;BME280;31650;48.818;9.116;2023-03-29T14:40:05;97985.78;;;13.82;100.00
45939;BME280;31650;48.818;9.116;2023-03-29T14:55:10;97960.25;;;13.88;100.00
45939;BME280;31650;48.818;9.116;2023-03-29T15:10:17;97928.22;;;13.72;95.69
45939;BME280;31650;48.818;9.116;2023-03-29T15:25:19;97905.97;;;14.09;84.74
45939;BME280;31650;48.818;9.116;2023-03-29T15:40:22;97885.22;;;14.87;78.58
45939;BME280;31650;48.818;9.116;2023-03-29T15:55:27;97861.31;;;14.48;77.60
45939;BME280;31650;48.818;9.116;2023-03-29T16:10:28;97882.38;;;13.74;80.50
45939;BME280;31650;48.818;9.116;2023-03-29T16:25:28;97865.13;;;13.73;83.74
45939;BME280;31650;48.818;9.116;2023-03-29T16:40:29;97863.22;;;13.45;84.06
45939;BME280;31650;48.818;9.116;2023-03-29T16:55:29;97844.00;;;13.16;86.13
45939;BME280;31650;48.818;9.116;2023-03-29T17:10:30;97852.47;;;12.79;90.38
45939;BME280;31650;48.818;9.116;2023-03-29T17:25:30;97867.75;;;12.57;94.15
45939;BME280;31650;48.818;9.116;2023-03-29T17:40:30;97837.50;;;12.35;100.00
45939;BME280;31650;48.818;9.116;2023-03-29T17:55:31;97833.19;;;11.85;100.00
45939;BME280;31650;48.818;9.116;2023-03-29T18:10:31;97825.78;;;11.92;100.00
45939;BME280;31650;48.818;9.116;2023-03-29T18:25:31;97833.03;;;11.80;100.00
45939;BME280;31650;48.818;9.116;2023-03-29T18:40:31;97816.44;;;11.88;90.15
45939;BME280;31650;48.818;9.116;2023-03-29T18:55:33;97800.38;;;12.22;77.80
45939;BME280;31650;48.818;9.116;2023-03-29T19:10:34;97806.69;;;12.34;73.75
45939;BME280;31650;48.818;9.116;2023-03-29T19:25:35;97811.72;;;11.96;78.11
45939;BME280;31650;48.818;9.116;2023-03-29T19:40:35;97806.31;;;11.59;81.38
45939;BME280;31650;48.818;9.116;2023-03-29T19:55:36;97793.47;;;10.99;90.09
45939;BME280;31650;48.818;9.116;2023-03-29T20:10:41;97757.00;;;10.70;92.80
45939;BME280;31650;48.818;9.116;2023-03-29T20:25:41;97733.78;;;11.04;86.65
45939;BME280;31650;48.818;9.116;2023-03-29T20:40:42;97725.06;;;11.02;91.02
45939;BME280;31650;48.818;9.116;2023-03-29T20:55:42;97706.09;;;10.77;89.67
45939;BME280;31650;48.818;9.116;2023-03-29T21:10:43;97681.28;;;11.87;70.20
45939;BME280;31650;48.818;9.116;2023-03-29T21:25:43;97647.72;;;13.15;61.80
45939;BME280;31650;48.818;9.116;2023-03-29T21:40:43;97626.72;;;13.78;59.62
45939;BME280;31650;48.818;9.116;2023-03-29T21:55:46;97609.38;;;14.06;59.09
45939;BME280;31650;48.818;9.116;2023-03-29T22:10:46;97596.50;;;14.23;59.66
45939;BME280;31650;48.818;9.116;2023-03-29T22:25:54;97589.44;;;14.49;59.55
45939;BME280;31650;48.818;9.116;2023-03-29T22:40:54;97606.78;;;14.77;58.66
45939;BME280;31650;48.818;9.116;2023-03-29T22:55:54;97606.38;;;14.90;58.90
45939;BME280;31650;48.818;9.116;2023-03-29T23:10:55;97594.84;;;14.88;59.47
45939;BME280;31650;48.818;9.116;2023-03-29T23:25:56;97583.34;;;14.86;60.14
45939;BME280;31650;48.818;9.116;2023-03-29T23:40:57;97594.69;;;15.00;60.18
45939;BME280;31650;48.818;9.116;2023-03-29T23:56:01;97597.78;;;14.38;66.58
